sensor_id;sensor_type;location;lat;lon;timestamp;pressure;altitude;pressure_sealevel;temperature;humidity
77011;BME280;65945;53.148;17.956;2022-12-18T00:02:10;102658.85;;;-4.24;80.00
77011;BME280;65945;53.148;17.956;2022-12-18T00:04:36;102661.73;;;-4.24;80.28
77011;BME280;65945;53.148;17.956;2022-12-18T00:07:03;102661.98;;;-4.26;80.55
77011;BME280;65945;53.148;17.956;2022-12-18T00:09:29;102658.21;;;-4.29;80.28
77011;BME280;65945;53.148;17.956;2022-12-18T00:11:56;102661.42;;;-4.30;80.60
77011;BME280;65945;53.148;17.956;2022-12-18T00:14:23;102666.53;;;-4.32;80.67
77011;BME280;65945;53.148;17.956;2022-12-18T00:16:49;102673.00;;;-4.27;80.63
77011;BME280;65945;53.148;17.956;2022-12-18T00:19:16;102675.11;;;-4.22;80.60
77011;BME280;65945;53.148;17.956;2022-12-18T00:21:43;102671.50;;;-4.17;80.59
77011;BME280;65945;53.148;17.956;2022-12-18T00:24:11;102668.04;;;-4.14;80.42
77011;BME280;65945;53.148;17.956;2022-12-18T00:26:39;102674.21;;;-4.10;80.33
77011;BME280;65945;53.148;17.956;2022-12-18T00:29:10;102685.31;;;-4.09;80.39
77011;BME280;65945;53.148;17.956;2022-12-18T00:31:37;102681.64;;;-4.09;80.34
77011;BME280;65945;53.148;17.956;2022-12-18T00:34:04;102682.13;;;-4.10;80.31
77011;BME280;65945;53.148;17.956;2022-12-18T00:36:33;102689.14;;;-4.13;80.44
77011;BME280;65945;53.148;17.956;2022-12-18T00:39:01;102686.29;;;-4.17;80.68
77011;BME280;65945;53.148;17.956;2022-12-18T00:41:28;102693.67;;;-4.16;80.65
77011;BME280;65945;53.148;17.956;2022-12-18T00:44:16;102701.16;;;-4.11;80.65
77011;BME280;65945;53.148;17.956;2022-12-18T00:46:44;102702.08;;;-4.07;80.54
77011;BME280;65945;53.148;17.956;2022-12-18T00:49:11;102711.40;;;-4.03;80.30
77011;BME280;65945;53.148;17.956;2022-12-18T00:51:38;102705.80;;;-4.03;80.17
77011;BME280;65945;53.148;17.956;2022-12-18T00:54:05;102708.45;;;-4.02;80.16
77011;BME280;65945;53.148;17.956;2022-12-18T00:56:31;102714.09;;;-4.04;80.23
77011;BME280;65945;53.148;17.956;2022-12-18T00:58:58;102712.13;;;-4.05;80.39
77011;BME280;65945;53.148;17.956;2022-12-18T01:01:24;102714.54;;;-4.08;80.53
77011;BME280;65945;53.148;17.956;2022-12-18T01:03:51;102710.33;;;-4.11;80.69
77011;BME280;65945;53.148;17.956;2022-12-18T01:06:19;102721.05;;;-4.07;80.62
77011;BME280;65945;53.148;17.956;2022-12-18T01:08:46;102731.51;;;-4.05;80.71
77011;BME280;65945;53.148;17.956;2022-12-18T01:11:16;102729.17;;;-4.02;80.43
77011;BME280;65945;53.148;17.956;2022-12-18T01:13:43;102728.55;;;-4.01;80.42
77011;BME280;65945;53.148;17.956;2022-12-18T01:16:13;102733.46;;;-4.02;80.45
77011;BME280;65945;53.148;17.956;2022-12-18T01:18:40;102724.67;;;-4.06;80.90
77011;BME280;65945;53.148;17.956;2022-12-18T01:21:09;102720.40;;;-4.09;80.90
77011;BME280;65945;53.148;17.956;2022-12-18T01:23:37;102717.23;;;-4.12;80.94
77011;BME280;65945;53.148;17.956;2022-12-18T01:26:09;102725.44;;;-4.14;81.05
77011;BME280;65945;53.148;17.956;2022-12-18T01:28:36;102731.64;;;-4.15;81.16
77011;BME280;65945;53.148;17.956;2022-12-18T01:31:16;102729.34;;;-4.13;80.96
77011;BME280;65945;53.148;17.956;2022-12-18T01:33:44;102744.02;;;-4.11;81.08
77011;BME280;65945;53.148;17.956;2022-12-18T01:36:37;102756.19;;;-4.10;80.66
77011;BME280;65945;53.148;17.956;2022-12-18T01:39:07;102759.53;;;-4.10;80.85
77011;BME280;65945;53.148;17.956;2022-12-18T01:41:35;102759.13;;;-4.10;80.52
77011;BME280;65945;53.148;17.956;2022-12-18T01:50:11;102750.32;;;-4.18;80.79
77011;BME280;65945;53.148;17.956;2022-12-18T01:52:42;102753.50;;;-4.18;80.83
77011;BME280;65945;53.148;17.956;2022-12-18T01:55:10;102751.28;;;-4.15;80.80
77011;BME280;65945;53.148;17.956;2022-12-18T01:57:39;102756.32;;;-4.12;80.51
77011;BME280;65945;53.148;17.956;2022-12-18T02:00:13;102756.75;;;-4.10;80.33
77011;BME280;65945;53.148;17.956;2022-12-18T02:02:41;102764.19;;;-4.10;80.43
77011;BME280;65945;53.148;17.956;2022-12-18T02:05:11;102770.62;;;-4.11;80.28
77011;BME280;65945;53.148;17.956;2022-12-18T02:08:04;102771.63;;;-4.15;80.43
77011;BME280;65945;53.148;17.956;2022-12-18T02:16:15;102772.18;;;-4.27;80.77
77011;BME280;65945;53.148;17.956;2022-12-18T02:18:48;102788.11;;;-4.22;80.46
77011;BME280;65945;53.148;17.956;2022-12-18T02:21:36;102787.92;;;-4.17;80.23
77011;BME280;65945;53.148;17.956;2022-12-18T02:24:24;102788.83;;;-4.14;80.34
77011;BME280;65945;53.148;17.956;2022-12-18T02:26:57;102786.54;;;-4.15;80.36
77011;BME280;65945;53.148;17.956;2022-12-18T02:29:48;102788.32;;;-4.22;80.44
77011;BME280;65945;53.148;17.956;2022-12-18T02:32:20;102798.42;;;-4.28;80.50
77011;BME280;65945;53.148;17.956;2022-12-18T02:34:50;102800.65;;;-4.31;80.68
77011;BME280;65945;53.148;17.956;2022-12-18T02:37:19;102800.80;;;-4.30;80.67
77011;BME280;65945;53.148;17.956;2022-12-18T02:39:49;102808.11;;;-4.24;80.56
77011;BME280;65945;53.148;17.956;2022-12-18T02:42:18;102809.78;;;-4.18;80.37
77011;BME280;65945;53.148;17.956;2022-12-18T02:44:48;102808.21;;;-4.17;80.46
77011;BME280;65945;53.148;17.956;2022-12-18T02:47:20;102813.88;;;-4.19;80.46
77011;BME280;65945;53.148;17.956;2022-12-18T02:57:58;102806.10;;;-4.32;80.74
77011;BME280;65945;53.148;17.956;2022-12-18T03:00:43;102804.06;;;-4.31;80.62
77011;BME280;65945;53.148;17.956;2022-12-18T03:03:31;102806.11;;;-4.26;80.56
77011;BME280;65945;53.148;17.956;2022-12-18T03:06:05;102807.77;;;-4.22;80.52
77011;BME280;65945;53.148;17.956;2022-12-18T03:08:37;102806.48;;;-4.24;80.36
77011;BME280;65945;53.148;17.956;2022-12-18T03:11:10;102813.91;;;-4.26;80.30
77011;BME280;65945;53.148;17.956;2022-12-18T03:13:46;102816.40;;;-4.29;80.60
77011;BME280;65945;53.148;17.956;2022-12-18T03:16:23;102824.75;;;-4.33;80.65
77011;BME280;65945;53.148;17.956;2022-12-18T03:18:55;102819.16;;;-4.37;80.69
77011;BME280;65945;53.148;17.956;2022-12-18T03:21:28;102824.41;;;-4.40;80.77
77011;BME280;65945;53.148;17.956;2022-12-18T03:23:58;102825.39;;;-4.38;80.66
77011;BME280;65945;53.148;17.956;2022-12-18T03:26:25;102824.99;;;-4.34;80.59
77011;BME280;65945;53.148;17.956;2022-12-18T03:29:08;102821.35;;;-4.29;80.42
77011;BME280;65945;53.148;17.956;2022-12-18T03:31:39;102826.73;;;-4.25;80.41
77011;BME280;65945;53.148;17.956;2022-12-18T03:34:16;102829.55;;;-4.23;80.29
77011;BME280;65945;53.148;17.956;2022-12-18T03:36:45;102832.69;;;-4.23;80.13
77011;BME280;65945;53.148;17.956;2022-12-18T03:39:12;102841.52;;;-4.24;80.21
77011;BME280;65945;53.148;17.956;2022-12-18T03:41:47;102846.90;;;-4.28;80.23
77011;BME280;65945;53.148;17.956;2022-12-18T03:44:29;102848.27;;;-4.33;80.40
77011;BME280;65945;53.148;17.956;2022-12-18T03:49:42;102850.70;;;-4.38;80.43
77011;BME280;65945;53.148;17.956;2022-12-18T03:52:19;102859.88;;;-4.34;80.33
77011;BME280;65945;53.148;17.956;2022-12-18T03:54:47;102865.27;;;-4.30;80.00
77011;BME280;65945;53.148;17.956;2022-12-18T03:57:19;102863.82;;;-4.27;79.95
77011;BME280;65945;53.148;17.956;2022-12-18T03:59:50;102860.29;;;-4.30;79.81
77011;BME280;65945;53.148;17.956;2022-12-18T04:02:21;102854.08;;;-4.35;79.85
77011;BME280;65945;53.148;17.956;2022-12-18T04:04:52;102854.84;;;-4.38;80.03
77011;BME280;65945;53.148;17.956;2022-12-18T04:07:20;102854.32;;;-4.42;79.92
77011;BME280;65945;53.148;17.956;2022-12-18T04:09:48;102857.48;;;-4.46;79.89
77011;BME280;65945;53.148;17.956;2022-12-18T04:12:18;102857.11;;;-4.49;80.08
77011;BME280;65945;53.148;17.956;2022-12-18T04:14:45;102860.96;;;-4.50;79.92
77011;BME280;65945;53.148;17.956;2022-12-18T04:17:11;102864.86;;;-4.51;79.79
77011;BME280;65945;53.148;17.956;2022-12-18T04:19:38;102867.63;;;-4.49;79.84
77011;BME280;65945;53.148;17.956;2022-12-18T04:22:05;102868.40;;;-4.43;79.71
77011;BME280;65945;53.148;17.956;2022-12-18T04:24:35;102870.46;;;-4.39;79.67
77011;BME280;65945;53.148;17.956;2022-12-18T04:27:06;102867.73;;;-4.38;79.46
77011;BME280;65945;53.148;17.956;2022-12-18T04:29:40;102870.60;;;-4.39;79.47
77011;BME280;65945;53.148;17.956;2022-12-18T04:32:07;102873.28;;;-4.41;79.62
77011;BME280;65945;53.148;17.956;2022-12-18T04:34:34;102878.54;;;-4.43;79.56
77011;BME280;65945;53.148;17.956;2022-12-18T04:37:00;102879.57;;;-4.46;79.58
77011;BME280;65945;53.148;17.956;2022-12-18T04:39:27;102877.36;;;-4.51;79.68
77011;BME280;65945;53.148;17.956;2022-12-18T04:41:55;102884.17;;;-4.56;79.74
77011;BME280;65945;53.148;17.956;2022-12-18T04:44:22;102889.25;;;-4.60;79.77
77011;BME280;65945;53.148;17.956;2022-12-18T04:46:48;102893.15;;;-4.58;79.61
77011;BME280;65945;53.148;17.956;2022-12-18T04:49:15;102891.59;;;-4.54;79.64
77011;BME280;65945;53.148;17.956;2022-12-18T04:51:41;102889.48;;;-4.50;79.52
77011;BME280;65945;53.148;17.956;2022-12-18T04:54:08;102894.30;;;-4.48;79.30
77011;BME280;65945;53.148;17.956;2022-12-18T04:56:35;102903.27;;;-4.50;79.47
77011;BME280;65945;53.148;17.956;2022-12-18T04:59:01;102899.28;;;-4.52;79.44
77011;BME280;65945;53.148;17.956;2022-12-18T05:01:28;102901.65;;;-4.54;79.48
77011;BME280;65945;53.148;17.956;2022-12-18T05:03:54;102906.48;;;-4.59;79.53
77011;BME280;65945;53.148;17.956;2022-12-18T05:06:21;102906.83;;;-4.63;79.52
77011;BME280;65945;53.148;17.956;2022-12-18T05:08:47;102902.39;;;-4.67;79.62
77011;BME280;65945;53.148;17.956;2022-12-18T05:11:15;102903.98;;;-4.71;79.71
77011;BME280;65945;53.148;17.956;2022-12-18T05:13:43;102907.13;;;-4.69;79.53
77011;BME280;65945;53.148;17.956;2022-12-18T05:16:11;102915.95;;;-4.66;79.54
77011;BME280;65945;53.148;17.956;2022-12-18T05:18:38;102922.94;;;-4.65;79.41
77011;BME280;65945;53.148;17.956;2022-12-18T05:21:04;102928.30;;;-4.66;79.56
77011;BME280;65945;53.148;17.956;2022-12-18T05:23:31;102930.75;;;-4.69;79.36
77011;BME280;65945;53.148;17.956;2022-12-18T05:26:00;102933.90;;;-4.72;79.39
77011;BME280;65945;53.148;17.956;2022-12-18T05:28:28;102936.77;;;-4.75;79.45
77011;BME280;65945;53.148;17.956;2022-12-18T05:30:57;102945.39;;;-4.80;79.47
77011;BME280;65945;53.148;17.956;2022-12-18T05:33:26;102949.24;;;-4.86;79.46
77011;BME280;65945;53.148;17.956;2022-12-18T05:35:54;102956.25;;;-4.90;79.57
77011;BME280;65945;53.148;17.956;2022-12-18T05:38:23;102959.67;;;-4.94;79.77
77011;BME280;65945;53.148;17.956;2022-12-18T05:40:51;102962.27;;;-4.93;79.53
77011;BME280;65945;53.148;17.956;2022-12-18T05:43:19;102963.35;;;-4.90;79.51
77011;BME280;65945;53.148;17.956;2022-12-18T05:45:47;102963.66;;;-4.87;79.42
77011;BME280;65945;53.148;17.956;2022-12-18T05:48:15;102965.59;;;-4.87;79.26
77011;BME280;65945;53.148;17.956;2022-12-18T05:50:44;102966.89;;;-4.90;79.34
77011;BME280;65945;53.148;17.956;2022-12-18T05:53:16;102970.11;;;-4.95;79.24
77011;BME280;65945;53.148;17.956;2022-12-18T05:55:43;102976.73;;;-4.99;79.34
77011;BME280;65945;53.148;17.956;2022-12-18T05:58:11;102981.54;;;-5.04;79.17
77011;BME280;65945;53.148;17.956;2022-12-18T06:00:44;102980.80;;;-5.12;79.09
77011;BME280;65945;53.148;17.956;2022-12-18T06:03:11;102981.58;;;-5.23;79.23
77011;BME280;65945;53.148;17.956;2022-12-18T06:05:41;102982.98;;;-5.29;79.24
77011;BME280;65945;53.148;17.956;2022-12-18T06:08:08;102986.35;;;-5.34;79.39
77011;BME280;65945;53.148;17.956;2022-12-18T06:10:36;102991.29;;;-5.38;79.28
77011;BME280;65945;53.148;17.956;2022-12-18T06:13:04;102994.33;;;-5.38;79.09
77011;BME280;65945;53.148;17.956;2022-12-18T06:15:31;102995.69;;;-5.41;79.03
77011;BME280;65945;53.148;17.956;2022-12-18T06:17:57;102996.58;;;-5.45;78.96
77011;BME280;65945;53.148;17.956;2022-12-18T06:20:24;103001.48;;;-5.48;78.95
77011;BME280;65945;53.148;17.956;2022-12-18T06:22:50;103008.08;;;-5.54;78.94
77011;BME280;65945;53.148;17.956;2022-12-18T06:25:17;103011.15;;;-5.64;78.75
77011;BME280;65945;53.148;17.956;2022-12-18T06:27:44;103016.92;;;-5.72;79.01
77011;BME280;65945;53.148;17.956;2022-12-18T06:30:11;103018.50;;;-5.78;79.06
77011;BME280;65945;53.148;17.956;2022-12-18T06:32:37;103016.09;;;-5.85;78.97
77011;BME280;65945;53.148;17.956;2022-12-18T06:35:06;103025.15;;;-5.93;79.18
77011;BME280;65945;53.148;17.956;2022-12-18T06:37:32;103027.73;;;-5.98;79.14
77011;BME280;65945;53.148;17.956;2022-12-18T06:39:59;103032.59;;;-6.04;79.11
77011;BME280;65945;53.148;17.956;2022-12-18T06:42:28;103036.45;;;-6.04;79.29
77011;BME280;65945;53.148;17.956;2022-12-18T06:44:54;103040.55;;;-6.02;79.15
77011;BME280;65945;53.148;17.956;2022-12-18T06:47:21;103044.74;;;-6.02;79.09
77011;BME280;65945;53.148;17.956;2022-12-18T06:49:48;103047.83;;;-6.03;79.18
77011;BME280;65945;53.148;17.956;2022-12-18T06:52:14;103051.77;;;-6.09;79.16
77011;BME280;65945;53.148;17.956;2022-12-18T06:54:41;103056.71;;;-6.13;79.22
77011;BME280;65945;53.148;17.956;2022-12-18T06:57:07;103064.95;;;-6.19;79.24
77011;BME280;65945;53.148;17.956;2022-12-18T06:59:34;103069.16;;;-6.25;79.38
77011;BME280;65945;53.148;17.956;2022-12-18T07:02:00;103074.49;;;-6.30;79.33
77011;BME280;65945;53.148;17.956;2022-12-18T07:04:29;103074.44;;;-6.34;79.36
77011;BME280;65945;53.148;17.956;2022-12-18T07:06:56;103078.39;;;-6.38;79.39
77011;BME280;65945;53.148;17.956;2022-12-18T07:09:24;103079.13;;;-6.43;79.69
77011;BME280;65945;53.148;17.956;2022-12-18T07:11:50;103083.39;;;-6.43;79.78
77011;BME280;65945;53.148;17.956;2022-12-18T07:14:17;103085.56;;;-6.38;79.71
77011;BME280;65945;53.148;17.956;2022-12-18T07:16:44;103086.81;;;-6.31;79.50
77011;BME280;65945;53.148;17.956;2022-12-18T07:19:10;103085.77;;;-6.27;79.50
77011;BME280;65945;53.148;17.956;2022-12-18T07:21:37;103090.54;;;-6.26;79.44
77011;BME280;65945;53.148;17.956;2022-12-18T07:24:04;103098.41;;;-6.24;79.55
77011;BME280;65945;53.148;17.956;2022-12-18T07:26:31;103097.32;;;-6.22;79.53
77011;BME280;65945;53.148;17.956;2022-12-18T07:28:58;103096.09;;;-6.22;79.66
77011;BME280;65945;53.148;17.956;2022-12-18T07:31:25;103096.84;;;-6.25;79.51
77011;BME280;65945;53.148;17.956;2022-12-18T07:33:52;103103.45;;;-6.28;79.57
77011;BME280;65945;53.148;17.956;2022-12-18T07:36:20;103113.11;;;-6.31;79.68
77011;BME280;65945;53.148;17.956;2022-12-18T07:38:48;103121.66;;;-6.34;79.81
77011;BME280;65945;53.148;17.956;2022-12-18T07:41:15;103127.09;;;-6.33;79.73
77011;BME280;65945;53.148;17.956;2022-12-18T07:43:42;103126.68;;;-6.28;79.84
77011;BME280;65945;53.148;17.956;2022-12-18T07:46:10;103129.73;;;-6.23;79.65
77011;BME280;65945;53.148;17.956;2022-12-18T07:48:37;103131.39;;;-6.21;79.55
77011;BME280;65945;53.148;17.956;2022-12-18T07:51:06;103132.73;;;-6.20;79.41
77011;BME280;65945;53.148;17.956;2022-12-18T07:53:34;103129.63;;;-6.21;79.09
77011;BME280;65945;53.148;17.956;2022-12-18T07:56:06;103125.96;;;-6.25;78.83
77011;BME280;65945;53.148;17.956;2022-12-18T07:58:34;103122.39;;;-6.26;78.88
77011;BME280;65945;53.148;17.956;2022-12-18T08:01:09;103127.88;;;-6.26;78.73
77011;BME280;65945;53.148;17.956;2022-12-18T08:03:38;103142.84;;;-6.29;78.68
77011;BME280;65945;53.148;17.956;2022-12-18T08:06:06;103149.41;;;-6.35;78.62
77011;BME280;65945;53.148;17.956;2022-12-18T08:08:34;103153.57;;;-6.41;78.77
77011;BME280;65945;53.148;17.956;2022-12-18T08:11:02;103152.17;;;-6.41;78.80
77011;BME280;65945;53.148;17.956;2022-12-18T08:13:28;103151.45;;;-6.38;78.57
77011;BME280;65945;53.148;17.956;2022-12-18T08:16:03;103158.73;;;-6.33;78.43
77011;BME280;65945;53.148;17.956;2022-12-18T08:18:33;103160.88;;;-6.32;78.47
77011;BME280;65945;53.148;17.956;2022-12-18T08:21:11;103158.18;;;-6.33;78.34
77011;BME280;65945;53.148;17.956;2022-12-18T08:23:38;103160.82;;;-6.33;78.42
77011;BME280;65945;53.148;17.956;2022-12-18T08:26:06;103162.48;;;-6.37;78.25
77011;BME280;65945;53.148;17.956;2022-12-18T08:28:33;103166.02;;;-6.39;78.47
77011;BME280;65945;53.148;17.956;2022-12-18T08:31:00;103164.98;;;-6.38;78.63
77011;BME280;65945;53.148;17.956;2022-12-18T08:33:27;103165.48;;;-6.35;78.56
77011;BME280;65945;53.148;17.956;2022-12-18T08:35:53;103175.86;;;-6.33;78.66
77011;BME280;65945;53.148;17.956;2022-12-18T08:38:20;103191.85;;;-6.30;78.67
77011;BME280;65945;53.148;17.956;2022-12-18T08:40:47;103199.66;;;-6.27;78.64
77011;BME280;65945;53.148;17.956;2022-12-18T08:43:14;103194.46;;;-6.21;78.63
77011;BME280;65945;53.148;17.956;2022-12-18T08:45:59;103191.45;;;-6.10;78.47
77011;BME280;65945;53.148;17.956;2022-12-18T08:48:25;103201.31;;;-6.00;78.24
77011;BME280;65945;53.148;17.956;2022-12-18T08:50:59;103199.01;;;-5.92;77.95
77011;BME280;65945;53.148;17.956;2022-12-18T08:53:26;103200.80;;;-5.84;77.81
77011;BME280;65945;53.148;17.956;2022-12-18T08:55:53;103198.48;;;-5.75;77.68
77011;BME280;65945;53.148;17.956;2022-12-18T08:58:20;103197.42;;;-5.72;77.44
77011;BME280;65945;53.148;17.956;2022-12-18T09:00:46;103191.52;;;-5.63;77.51
77011;BME280;65945;53.148;17.956;2022-12-18T09:03:14;103188.48;;;-5.56;77.48
77011;BME280;65945;53.148;17.956;2022-12-18T09:05:42;103188.66;;;-5.54;77.28
77011;BME280;65945;53.148;17.956;2022-12-18T09:08:08;103185.73;;;-5.54;77.22
77011;BME280;65945;53.148;17.956;2022-12-18T09:10:42;103180.92;;;-5.57;77.35
77011;BME280;65945;53.148;17.956;2022-12-18T09:13:10;103179.83;;;-5.58;77.30
77011;BME280;65945;53.148;17.956;2022-12-18T09:15:48;103174.72;;;-5.63;77.44
77011;BME280;65945;53.148;17.956;2022-12-18T09:18:16;103173.10;;;-5.64;77.46
77011;BME280;65945;53.148;17.956;2022-12-18T09:20:44;103173.20;;;-5.63;77.61
77011;BME280;65945;53.148;17.956;2022-12-18T09:23:11;103172.92;;;-5.59;77.74
77011;BME280;65945;53.148;17.956;2022-12-18T09:25:38;103165.55;;;-5.55;77.78
77011;BME280;65945;53.148;17.956;2022-12-18T09:28:10;103168.52;;;-5.52;77.76
77011;BME280;65945;53.148;17.956;2022-12-18T09:30:39;103170.17;;;-5.50;77.71
77011;BME280;65945;53.148;17.956;2022-12-18T09:33:06;103166.29;;;-5.50;77.72
77011;BME280;65945;53.148;17.956;2022-12-18T09:35:36;103165.10;;;-5.48;77.65
77011;BME280;65945;53.148;17.956;2022-12-18T09:38:03;103165.92;;;-5.48;77.74
77011;BME280;65945;53.148;17.956;2022-12-18T09:40:34;103170.16;;;-5.49;77.70
77011;BME280;65945;53.148;17.956;2022-12-18T09:43:04;103176.64;;;-5.39;77.66
77011;BME280;65945;53.148;17.956;2022-12-18T09:45:39;103176.03;;;-5.27;77.57
77011;BME280;65945;53.148;17.956;2022-12-18T09:48:15;103179.42;;;-5.18;77.37
77011;BME280;65945;53.148;17.956;2022-12-18T09:50:46;103179.35;;;-5.13;77.37
77011;BME280;65945;53.148;17.956;2022-12-18T09:53:19;103181.23;;;-5.15;77.07
77011;BME280;65945;53.148;17.956;2022-12-18T09:55:48;103180.74;;;-5.17;77.37
77011;BME280;65945;53.148;17.956;2022-12-18T09:58:35;103183.06;;;-5.15;77.39
77011;BME280;65945;53.148;17.956;2022-12-18T10:01:10;103174.42;;;-5.12;77.20
77011;BME280;65945;53.148;17.956;2022-12-18T10:03:38;103168.14;;;-5.14;77.05
77011;BME280;65945;53.148;17.956;2022-12-18T10:06:19;103169.20;;;-5.14;77.11
77011;BME280;65945;53.148;17.956;2022-12-18T10:12:07;103167.29;;;-5.15;76.94
77011;BME280;65945;53.148;17.956;2022-12-18T10:17:44;103182.17;;;-5.12;76.96
77011;BME280;65945;53.148;17.956;2022-12-18T10:23:08;103182.70;;;-5.08;76.76
77011;BME280;65945;53.148;17.956;2022-12-18T10:26:03;103185.34;;;-5.09;76.72
77011;BME280;65945;53.148;17.956;2022-12-18T10:28:32;103196.28;;;-5.04;76.69
77011;BME280;65945;53.148;17.956;2022-12-18T10:30:59;103196.94;;;-4.97;76.47
77011;BME280;65945;53.148;17.956;2022-12-18T10:33:31;103200.45;;;-4.95;76.39
77011;BME280;65945;53.148;17.956;2022-12-18T10:35:59;103193.66;;;-4.95;76.26
77011;BME280;65945;53.148;17.956;2022-12-18T10:38:29;103189.80;;;-4.99;76.36
77011;BME280;65945;53.148;17.956;2022-12-18T10:41:01;103187.02;;;-5.02;76.55
77011;BME280;65945;53.148;17.956;2022-12-18T10:43:30;103189.73;;;-4.98;76.71
77011;BME280;65945;53.148;17.956;2022-12-18T10:46:12;103191.92;;;-4.96;76.71
77011;BME280;65945;53.148;17.956;2022-12-18T10:51:30;103195.23;;;-4.99;76.55
77011;BME280;65945;53.148;17.956;2022-12-18T10:54:06;103198.42;;;-4.98;76.69
77011;BME280;65945;53.148;17.956;2022-12-18T10:56:39;103203.77;;;-4.97;76.59
77011;BME280;65945;53.148;17.956;2022-12-18T10:59:09;103209.08;;;-5.00;76.55
77011;BME280;65945;53.148;17.956;2022-12-18T11:01:52;103214.70;;;-5.03;76.73
77011;BME280;65945;53.148;17.956;2022-12-18T11:04:29;103221.95;;;-5.00;76.61
77011;BME280;65945;53.148;17.956;2022-12-18T11:07:05;103219.37;;;-4.92;76.58
77011;BME280;65945;53.148;17.956;2022-12-18T11:09:34;103217.73;;;-4.83;76.44
77011;BME280;65945;53.148;17.956;2022-12-18T11:12:03;103219.11;;;-4.78;76.24
77011;BME280;65945;53.148;17.956;2022-12-18T11:14:41;103222.05;;;-4.73;76.32
77011;BME280;65945;53.148;17.956;2022-12-18T11:17:38;103223.50;;;-4.69;76.04
77011;BME280;65945;53.148;17.956;2022-12-18T11:20:18;103227.50;;;-4.69;75.88
77011;BME280;65945;53.148;17.956;2022-12-18T11:22:55;103226.43;;;-4.72;75.65
77011;BME280;65945;53.148;17.956;2022-12-18T11:25:23;103218.90;;;-4.74;75.82
77011;BME280;65945;53.148;17.956;2022-12-18T11:27:58;103214.15;;;-4.75;75.75
77011;BME280;65945;53.148;17.956;2022-12-18T11:30:28;103208.08;;;-4.72;76.06
77011;BME280;65945;53.148;17.956;2022-12-18T11:38:15;103200.96;;;-4.65;75.71
77011;BME280;65945;53.148;17.956;2022-12-18T11:40:49;103198.05;;;-4.66;75.56
77011;BME280;65945;53.148;17.956;2022-12-18T11:43:33;103193.70;;;-4.68;75.48
77011;BME280;65945;53.148;17.956;2022-12-18T11:46:06;103202.08;;;-4.73;75.44
77011;BME280;65945;53.148;17.956;2022-12-18T11:48:59;103202.06;;;-4.76;75.34
77011;BME280;65945;53.148;17.956;2022-12-18T11:51:42;103201.75;;;-4.74;75.21
77011;BME280;65945;53.148;17.956;2022-12-18T11:54:15;103209.77;;;-4.80;75.18
77011;BME280;65945;53.148;17.956;2022-12-18T11:56:50;103219.70;;;-4.86;75.27
77011;BME280;65945;53.148;17.956;2022-12-18T11:59:33;103221.57;;;-4.95;75.60
77011;BME280;65945;53.148;17.956;2022-12-18T12:05:16;103218.02;;;-5.12;76.02
77011;BME280;65945;53.148;17.956;2022-12-18T12:07:57;103221.86;;;-5.15;76.51
77011;BME280;65945;53.148;17.956;2022-12-18T12:21:40;103239.52;;;-5.03;76.12
77011;BME280;65945;53.148;17.956;2022-12-18T12:33:01;103252.94;;;-5.13;75.60
77011;BME280;65945;53.148;17.956;2022-12-18T12:40:33;103268.92;;;-5.14;76.04
77011;BME280;65945;53.148;17.956;2022-12-18T12:43:21;103272.64;;;-5.13;75.89
77011;BME280;65945;53.148;17.956;2022-12-18T12:46:11;103275.92;;;-5.19;75.89
77011;BME280;65945;53.148;17.956;2022-12-18T12:48:49;103277.37;;;-5.22;76.08
77011;BME280;65945;53.148;17.956;2022-12-18T12:51:25;103278.46;;;-5.28;76.00
77011;BME280;65945;53.148;17.956;2022-12-18T12:53:54;103278.14;;;-5.35;76.09
77011;BME280;65945;53.148;17.956;2022-12-18T12:56:26;103285.02;;;-5.33;76.29
77011;BME280;65945;53.148;17.956;2022-12-18T12:59:08;103284.38;;;-5.24;76.28
77011;BME280;65945;53.148;17.956;2022-12-18T13:04:42;103287.85;;;-4.85;78.20
77011;BME280;65945;53.148;17.956;2022-12-18T13:07:17;103287.63;;;-4.67;76.35
77011;BME280;65945;53.148;17.956;2022-12-18T13:13:01;103284.98;;;-4.76;75.39
77011;BME280;65945;53.148;17.956;2022-12-18T13:15:47;103281.62;;;-4.83;75.38
77011;BME280;65945;53.148;17.956;2022-12-18T13:21:02;103282.52;;;-4.99;75.49
77011;BME280;65945;53.148;17.956;2022-12-18T13:23:37;103278.75;;;-5.06;75.69
77011;BME280;65945;53.148;17.956;2022-12-18T13:31:13;103274.59;;;-5.30;75.80
77011;BME280;65945;53.148;17.956;2022-12-18T13:33:45;103273.60;;;-5.33;75.97
77011;BME280;65945;53.148;17.956;2022-12-18T13:38:40;103278.96;;;-5.27;75.93
77011;BME280;65945;53.148;17.956;2022-12-18T13:43:42;103277.45;;;-5.26;75.99
77011;BME280;65945;53.148;17.956;2022-12-18T13:48:57;103276.38;;;-5.34;76.13
77011;BME280;65945;53.148;17.956;2022-12-18T13:51:26;103275.92;;;-5.39;76.19
77011;BME280;65945;53.148;17.956;2022-12-18T13:53:54;103271.11;;;-5.41;76.23
77011;BME280;65945;53.148;17.956;2022-12-18T13:56:25;103272.05;;;-5.46;76.37
77011;BME280;65945;53.148;17.956;2022-12-18T14:01:34;103271.69;;;-5.54;76.64
77011;BME280;65945;53.148;17.956;2022-12-18T14:04:34;103271.68;;;-5.57;76.76
77011;BME280;65945;53.148;17.956;2022-12-18T14:09:32;103273.49;;;-5.60;76.98
77011;BME280;65945;53.148;17.956;2022-12-18T14:12:02;103276.98;;;-5.63;76.75
77011;BME280;65945;53.148;17.956;2022-12-18T14:14:50;103283.77;;;-5.60;76.76
77011;BME280;65945;53.148;17.956;2022-12-18T14:17:17;103284.52;;;-5.56;76.74
77011;BME280;65945;53.148;17.956;2022-12-18T14:19:47;103281.26;;;-5.53;76.74
77011;BME280;65945;53.148;17.956;2022-12-18T14:22:17;103284.84;;;-5.50;76.70
77011;BME280;65945;53.148;17.956;2022-12-18T14:24:45;103289.48;;;-5.48;76.82
77011;BME280;65945;53.148;17.956;2022-12-18T14:27:24;103292.01;;;-5.47;76.80
77011;BME280;65945;53.148;17.956;2022-12-18T14:29:51;103296.13;;;-5.45;76.75
77011;BME280;65945;53.148;17.956;2022-12-18T14:32:19;103291.80;;;-5.45;76.84
77011;BME280;65945;53.148;17.956;2022-12-18T14:34:51;103291.83;;;-5.45;76.82